createdAt,value
2022-09-02T00:02:50.456Z,15.03
2022-09-02T00:07:57.687Z,15.00
2022-09-02T00:13:00.726Z,14.93
2022-09-02T00:18:04.768Z,14.87
2022-09-02T00:23:09.504Z,14.85
2022-09-02T00:28:13.867Z,14.74
2022-09-02T00:33:18.686Z,14.60
2022-09-02T00:38:23.089Z,14.47
2022-09-02T00:43:38.964Z,14.33
2022-09-02T00:48:48.208Z,14.31
2022-09-02T00:53:52.813Z,14.30
2022-09-02T00:58:57.234Z,14.26
2022-09-02T01:04:00.702Z,14.14
2022-09-02T01:09:09.457Z,14.20
2022-09-02T01:14:13.692Z,14.14
2022-09-02T01:19:22.962Z,14.13
2022-09-02T01:24:30.902Z,14.05
2022-09-02T01:29:33.801Z,14.10
2022-09-02T01:34:38.044Z,14.09
2022-09-02T01:39:42.447Z,14.07
2022-09-02T01:44:46.412Z,14.05
2022-09-02T01:49:51.322Z,13.97
2022-09-02T01:54:56.502Z,13.91
2022-09-02T02:00:01.314Z,13.89
2022-09-02T02:05:05.204Z,13.80
2022-09-02T02:10:10.633Z,13.75
2022-09-02T02:15:17.200Z,13.73
2022-09-02T02:20:22.145Z,13.69
2022-09-02T02:25:26.626Z,13.63
2022-09-02T02:30:30.602Z,13.61
2022-09-02T02:35:34.717Z,13.44
2022-09-02T02:40:40.120Z,13.33
2022-09-02T02:45:43.157Z,13.35
2022-09-02T02:50:46.145Z,13.26
2022-09-02T02:55:51.540Z,13.08
2022-09-02T03:00:54.771Z,13.04
2022-09-02T03:05:58.129Z,12.93
2022-09-02T03:11:05.833Z,12.72
2022-09-02T03:16:10.299Z,12.74
2022-09-02T03:21:16.056Z,12.59
2022-09-02T03:26:24.512Z,12.64
2022-09-02T03:31:29.343Z,12.56
2022-09-02T03:36:36.605Z,12.51
2022-09-02T03:41:42.428Z,12.49
2022-09-02T03:46:46.419Z,12.48
2022-09-02T03:51:49.394Z,12.46
2022-09-02T03:56:54.185Z,12.48
2022-09-02T04:01:57.192Z,12.44
2022-09-02T04:07:01.055Z,12.39
2022-09-02T04:12:07.096Z,12.36
2022-09-02T04:17:11.076Z,12.33
2022-09-02T04:22:13.988Z,12.16
2022-09-02T04:27:18.290Z,12.09
2022-09-02T04:32:22.680Z,11.92
2022-09-02T04:37:27.597Z,11.79
2022-09-02T04:42:32.569Z,11.82
2022-09-02T04:47:35.500Z,11.83
2022-09-02T04:52:39.675Z,11.84
2022-09-02T04:57:44.140Z,11.76
2022-09-02T05:02:47.406Z,11.78
2022-09-02T05:07:51.250Z,11.73
2022-09-02T05:12:55.992Z,11.77
2022-09-02T05:17:59.535Z,11.80
2022-09-02T05:23:02.460Z,11.97
2022-09-02T05:28:08.817Z,12.25
2022-09-02T05:33:13.506Z,12.53
2022-09-02T05:38:18.833Z,12.77
2022-09-02T05:43:24.821Z,12.87
2022-09-02T05:48:45.700Z,13.15
2022-09-02T05:53:48.938Z,13.42
2022-09-02T05:58:55.609Z,13.65
2022-09-02T06:03:58.864Z,13.72
2022-09-02T06:09:04.245Z,13.88
2022-09-02T06:14:09.488Z,14.18
2022-09-02T06:19:19.154Z,14.53
2022-09-02T06:24:25.081Z,14.88
2022-09-02T06:29:29.507Z,15.10
2022-09-02T06:34:32.934Z,15.27
2022-09-02T06:39:37.716Z,15.60
2022-09-02T06:44:42.366Z,15.78
2022-09-02T06:49:45.362Z,16.09
2022-09-02T06:54:49.104Z,16.43
2022-09-02T06:59:53.322Z,16.80
2022-09-02T07:05:10.955Z,17.06
2022-09-02T07:10:15.485Z,17.36
2022-09-02T07:15:24.680Z,17.48
2022-09-02T07:20:28.399Z,17.83
2022-09-02T07:25:35.457Z,17.53
2022-09-02T07:30:42.837Z,18.06
2022-09-02T07:35:53.102Z,18.35
2022-09-02T07:40:57.377Z,18.16
2022-09-02T07:46:05.743Z,18.48
2022-09-02T07:51:09.720Z,18.97
2022-09-02T07:56:15.164Z,19.00
2022-09-02T08:01:23.532Z,19.64
2022-09-02T08:06:34.586Z,19.32
2022-09-02T08:11:39.784Z,20.06
2022-09-02T08:16:44.255Z,20.61
2022-09-02T08:21:47.101Z,20.34
2022-09-02T08:26:49.915Z,20.57
2022-09-02T08:31:54.345Z,20.94
2022-09-02T08:36:58.070Z,21.56
2022-09-02T08:42:09.720Z,21.75
2022-09-02T08:47:22.949Z,22.02
2022-09-02T08:52:32.270Z,22.10
2022-09-02T08:57:36.229Z,22.38
2022-09-02T09:02:57.909Z,22.60
2022-09-02T09:08:09.750Z,22.55
2022-09-02T09:13:47.053Z,22.46
2022-09-02T09:18:58.323Z,22.78
2022-09-02T09:24:05.012Z,22.66
2022-09-02T09:29:08.257Z,23.21
2022-09-02T09:34:14.000Z,23.28
2022-09-02T09:39:22.436Z,22.97
2022-09-02T09:44:40.971Z,23.74
2022-09-02T09:49:45.133Z,24.01
2022-09-02T09:54:47.919Z,24.34
2022-09-02T09:59:55.991Z,23.95
2022-09-02T10:05:17.980Z,23.87
2022-09-02T10:10:23.510Z,24.44
2022-09-02T10:15:35.734Z,24.53
2022-09-02T10:31:36.375Z,26.17
2022-09-02T10:36:58.763Z,25.86
2022-09-02T10:42:07.553Z,26.17
2022-09-02T10:47:18.702Z,26.46
2022-09-02T10:52:38.428Z,26.49
2022-09-02T10:57:49.495Z,26.90
2022-09-02T11:02:56.529Z,27.74
2022-09-02T11:08:09.773Z,27.99
2022-09-02T11:13:19.959Z,28.63
2022-09-02T11:18:28.205Z,29.74
2022-09-02T11:23:39.511Z,29.88
2022-09-02T11:28:49.176Z,29.75
2022-09-02T11:33:59.431Z,29.54
2022-09-02T11:39:09.290Z,29.97
2022-09-02T11:45:03.942Z,30.76
2022-09-02T11:50:24.213Z,30.55
2022-09-02T11:55:34.774Z,29.59
2022-09-02T12:01:02.924Z,30.46
2022-09-02T12:06:13.624Z,30.56
2022-09-02T12:11:39.881Z,30.99
2022-09-02T12:16:45.832Z,30.55
2022-09-02T12:22:23.543Z,29.91
2022-09-02T12:27:31.495Z,29.68
2022-09-02T12:33:05.069Z,29.53
2022-09-02T12:38:42.812Z,31.06
2022-09-02T12:43:57.620Z,33.71
2022-09-02T12:49:06.752Z,33.62
2022-09-02T12:54:09.696Z,34.59
2022-09-02T12:59:28.097Z,36.59
2022-09-02T13:04:40.077Z,34.56
2022-09-02T13:10:00.726Z,30.46
2022-09-02T13:15:23.594Z,28.19
2022-09-02T13:20:55.793Z,26.45
2022-09-02T13:26:45.448Z,27.56
2022-09-02T13:32:00.399Z,27.37
2022-09-02T13:37:03.209Z,26.66
2022-09-02T13:42:15.937Z,25.25
2022-09-02T13:47:23.061Z,25.26
2022-09-02T13:53:01.124Z,25.55
2022-09-02T13:57:58.051Z,25.34
2022-09-02T14:03:06.235Z,24.95
2022-09-02T14:08:14.865Z,25.52
2022-09-02T14:13:18.281Z,26.19
2022-09-02T14:18:25.471Z,25.92
2022-09-02T14:23:29.671Z,25.68
2022-09-02T14:28:34.723Z,27.45
2022-09-02T14:33:45.076Z,25.96
2022-09-02T14:38:54.565Z,26.55
2022-09-02T14:43:59.285Z,27.16
2022-09-02T14:49:06.655Z,25.56
2022-09-02T14:54:09.964Z,26.14
2022-09-02T14:59:12.804Z,25.80
2022-09-02T15:04:17.084Z,24.64
2022-09-02T15:09:19.914Z,23.90
2022-09-02T15:14:22.712Z,24.21
2022-09-02T15:19:26.936Z,24.49
2022-09-02T15:24:29.716Z,24.15
2022-09-02T15:29:32.890Z,24.64
2022-09-02T15:34:37.039Z,24.62
2022-09-02T15:39:39.930Z,25.12
2022-09-02T15:44:42.763Z,25.44
2022-09-02T15:49:47.145Z,25.86
2022-09-02T15:54:50.104Z,26.34
2022-09-02T15:59:52.898Z,25.73
2022-09-02T16:04:57.183Z,26.19
2022-09-02T16:10:03.363Z,25.66
2022-09-02T16:15:07.825Z,25.62
2022-09-02T16:20:12.645Z,26.23
2022-09-02T16:25:15.670Z,25.98
2022-09-02T16:30:18.773Z,25.74
2022-09-02T16:35:22.937Z,25.95
2022-09-02T16:40:25.759Z,25.75
2022-09-02T16:45:28.577Z,25.50
2022-09-02T16:50:32.779Z,25.66
2022-09-02T16:55:37.689Z,24.49
2022-09-02T17:00:41.838Z,24.26
2022-09-02T17:05:47.944Z,24.31
2022-09-02T17:10:50.921Z,24.43
2022-09-02T17:15:54.040Z,24.16
2022-09-02T17:21:18.044Z,23.74
2022-09-02T17:26:22.549Z,23.42
2022-09-02T17:31:27.658Z,22.86
2022-09-02T17:36:33.595Z,22.62
2022-09-02T17:41:54.332Z,22.24
2022-09-02T17:46:57.101Z,22.12
2022-09-02T17:52:01.336Z,21.88
2022-09-02T17:57:10.310Z,21.80
2022-09-02T18:02:34.556Z,21.63
2022-09-02T18:07:44.862Z,21.55
2022-09-02T18:12:48.094Z,21.47
2022-09-02T18:17:53.963Z,21.38
2022-09-02T18:23:20.355Z,21.32
2022-09-02T18:28:34.901Z,21.20
2022-09-02T18:33:53.545Z,21.01
2022-09-02T18:39:15.652Z,20.95
2022-09-02T18:44:34.016Z,20.88
2022-09-02T18:49:39.590Z,20.76
2022-09-02T18:54:50.649Z,20.69
2022-09-02T19:00:01.173Z,20.48
2022-09-02T19:05:07.170Z,20.29
2022-09-02T19:10:14.150Z,20.09
2022-09-02T19:15:17.417Z,19.94
2022-09-02T19:20:20.318Z,19.86
2022-09-02T19:25:27.471Z,19.74
2022-09-02T19:30:36.030Z,19.61
2022-09-02T19:35:46.423Z,19.49
2022-09-02T19:40:50.564Z,19.46
2022-09-02T19:45:53.577Z,19.37
2022-09-02T19:50:56.500Z,19.17
2022-09-02T19:56:01.325Z,19.11
2022-09-02T20:01:05.493Z,19.02
2022-09-02T20:06:08.720Z,18.96
2022-09-02T20:11:12.963Z,18.88
2022-09-02T20:16:20.119Z,18.77
2022-09-02T20:21:24.826Z,18.63
2022-09-02T20:26:49.138Z,18.51
2022-09-02T20:32:07.474Z,18.54
2022-09-02T20:37:23.140Z,18.40
2022-09-02T20:42:48.313Z,18.16
2022-09-02T20:48:06.146Z,18.17
2022-09-02T20:53:25.215Z,18.16
2022-09-02T20:58:40.826Z,18.16
2022-09-02T21:03:52.862Z,17.93
2022-09-02T21:09:02.251Z,17.83
2022-09-02T21:14:13.578Z,17.87
2022-09-02T21:19:22.052Z,17.68
2022-09-02T21:24:32.540Z,17.80
2022-09-02T21:29:46.267Z,17.84
2022-09-02T21:34:55.223Z,17.63
2022-09-02T21:40:04.705Z,17.57
2022-09-02T21:45:20.088Z,17.69
2022-09-02T21:50:28.109Z,17.66
2022-09-02T21:55:54.420Z,17.53
2022-09-02T22:01:04.065Z,17.46
2022-09-02T22:06:14.600Z,17.55
2022-09-02T22:11:26.577Z,17.40
2022-09-02T22:16:45.707Z,17.26
2022-09-02T22:21:50.749Z,17.48
2022-09-02T22:26:56.897Z,17.42
2022-09-02T22:32:02.706Z,17.28
2022-09-02T22:37:09.594Z,17.15
2022-09-02T22:42:21.372Z,17.12
2022-09-02T22:47:43.824Z,17.15
2022-09-02T22:52:54.573Z,16.84
2022-09-02T22:58:05.324Z,16.71
2022-09-02T23:03:16.917Z,16.51
2022-09-02T23:08:22.033Z,16.68
2022-09-02T23:13:43.506Z,16.48
2022-09-02T23:19:04.015Z,16.30
2022-09-02T23:24:19.836Z,16.51
2022-09-02T23:29:26.430Z,16.35
2022-09-02T23:34:48.070Z,16.23
2022-09-02T23:40:00.836Z,16.33
2022-09-02T23:45:10.145Z,16.38
2022-09-02T23:50:32.366Z,16.19
2022-09-02T23:55:44.601Z,16.05
